createdAt,value
2023-04-18T00:02:05.393Z,11.22
2023-04-18T00:05:08.635Z,11.21
2023-04-18T00:08:12.060Z,11.18
2023-04-18T00:11:15.659Z,11.21
2023-04-18T00:14:19.848Z,11.28
2023-04-18T00:17:24.439Z,11.30
2023-04-18T00:20:28.233Z,11.33
2023-04-18T00:23:31.470Z,11.33
2023-04-18T00:26:35.793Z,11.35
2023-04-18T00:29:41.213Z,11.35
2023-04-18T00:32:45.962Z,11.39
2023-04-18T00:35:48.655Z,11.39
2023-04-18T00:38:51.198Z,11.42
2023-04-18T00:41:55.162Z,11.42
2023-04-18T00:44:57.970Z,11.44
2023-04-18T00:48:00.868Z,11.51
2023-04-18T00:51:05.499Z,11.42
2023-04-18T00:54:10.991Z,11.48
2023-04-18T00:57:17.179Z,11.48
2023-04-18T01:00:22.231Z,11.51
2023-04-18T01:03:31.089Z,11.55
2023-04-18T01:06:34.768Z,11.53
2023-04-18T01:09:42.265Z,11.51
2023-04-18T01:12:47.666Z,11.43
2023-04-18T01:15:58.216Z,11.41
2023-04-18T01:19:03.739Z,11.37
2023-04-18T01:22:10.398Z,11.40
2023-04-18T01:25:13.802Z,11.40
2023-04-18T01:28:19.807Z,11.45
2023-04-18T01:31:24.629Z,11.44
2023-04-18T01:34:32.094Z,11.35
2023-04-18T01:37:39.222Z,11.45
2023-04-18T01:40:42.903Z,11.40
2023-04-18T01:43:48.600Z,11.40
2023-04-18T01:46:56.014Z,11.44
2023-04-18T01:50:00.379Z,11.44
2023-04-18T01:53:04.490Z,11.42
2023-04-18T01:56:14.192Z,11.43
2023-04-18T01:59:18.623Z,11.48
2023-04-18T02:02:24.723Z,11.55
2023-04-18T02:05:34.559Z,11.56
2023-04-18T02:08:41.940Z,11.56
2023-04-18T02:11:45.735Z,11.54
2023-04-18T02:14:54.520Z,11.57
2023-04-18T02:17:56.991Z,11.63
2023-04-18T02:21:02.828Z,11.65
2023-04-18T02:24:05.638Z,11.62
2023-04-18T02:27:11.271Z,11.65
2023-04-18T02:30:14.652Z,11.66
2023-04-18T02:33:18.802Z,11.59
2023-04-18T02:36:22.528Z,11.60
2023-04-18T02:39:28.056Z,11.64
2023-04-18T02:42:32.887Z,11.63
2023-04-18T02:45:36.755Z,11.67
2023-04-18T02:48:41.322Z,11.71
2023-04-18T02:51:46.704Z,11.74
2023-04-18T02:54:49.775Z,11.73
2023-04-18T02:57:54.636Z,11.72
2023-04-18T03:00:59.960Z,11.44
2023-04-18T03:04:03.134Z,11.06
2023-04-18T03:07:05.976Z,10.83
2023-04-18T03:10:09.995Z,10.68
2023-04-18T03:13:13.541Z,10.63
2023-04-18T03:16:17.504Z,10.58
2023-04-18T03:19:20.477Z,10.58
2023-04-18T03:22:23.645Z,10.58
2023-04-18T03:25:26.748Z,10.55
2023-04-18T03:28:30.139Z,10.55
2023-04-18T03:31:33.969Z,10.57
2023-04-18T03:34:37.658Z,10.68
2023-04-18T03:37:40.848Z,10.73
2023-04-18T03:40:46.099Z,10.80
2023-04-18T03:43:49.494Z,10.84
2023-04-18T03:46:53.615Z,10.89
2023-04-18T03:49:57.062Z,10.94
2023-04-18T03:53:01.613Z,10.99
2023-04-18T03:56:05.359Z,10.97
2023-04-18T03:59:08.773Z,11.01
2023-04-18T04:02:13.292Z,11.02
2023-04-18T04:05:17.692Z,11.02
2023-04-18T04:08:21.567Z,11.03
2023-04-18T04:11:25.533Z,11.02
2023-04-18T04:14:29.610Z,11.06
2023-04-18T04:17:32.175Z,11.08
2023-04-18T04:20:36.807Z,11.13
2023-04-18T04:23:42.531Z,11.18
2023-04-18T04:26:46.847Z,11.18
2023-04-18T04:29:54.334Z,11.16
2023-04-18T04:32:57.801Z,11.08
2023-04-18T04:36:04.895Z,11.07
2023-04-18T04:39:11.869Z,11.06
2023-04-18T04:42:18.798Z,11.00
2023-04-18T04:45:27.881Z,10.93
2023-04-18T04:48:37.638Z,10.91
2023-04-18T04:51:52.124Z,10.91
2023-04-18T04:55:02.097Z,10.90
2023-04-18T04:58:06.861Z,10.91
2023-04-18T05:01:15.124Z,10.89
2023-04-18T05:04:23.945Z,10.93
2023-04-18T05:07:26.595Z,10.88
2023-04-18T05:10:30.362Z,10.82
2023-04-18T05:13:33.262Z,10.71
2023-04-18T05:16:36.435Z,10.64
2023-04-18T05:19:40.171Z,10.61
2023-04-18T05:22:42.627Z,10.64
2023-04-18T05:25:44.992Z,10.62
2023-04-18T05:28:47.743Z,10.57
2023-04-18T05:31:50.083Z,10.57
2023-04-18T05:34:52.676Z,10.55
2023-04-18T05:37:55.248Z,10.66
2023-04-18T05:41:00.740Z,10.79
2023-04-18T05:44:05.765Z,10.95
2023-04-18T05:47:08.455Z,10.98
2023-04-18T05:50:11.098Z,11.12
2023-04-18T05:53:13.729Z,11.24
2023-04-18T05:56:17.054Z,11.40
2023-04-18T05:59:21.295Z,11.56
2023-04-18T06:02:23.835Z,11.82
2023-04-18T06:05:26.596Z,11.87
2023-04-18T06:08:29.060Z,12.21
2023-04-18T06:11:34.254Z,12.49
2023-04-18T06:14:37.820Z,12.41
2023-04-18T06:17:41.831Z,12.64
2023-04-18T06:20:50.722Z,12.83
2023-04-18T06:23:54.618Z,12.80
2023-04-18T06:26:57.861Z,12.87
2023-04-18T06:30:00.833Z,12.82
2023-04-18T06:33:03.862Z,12.69
2023-04-18T06:36:07.833Z,13.00
2023-04-18T06:39:11.289Z,13.13
2023-04-18T06:42:15.478Z,13.42
2023-04-18T06:45:18.757Z,13.75
2023-04-18T06:48:22.713Z,14.25
2023-04-18T06:51:26.693Z,14.63
2023-04-18T06:54:29.621Z,15.39
2023-04-18T06:57:34.811Z,16.62
2023-04-18T07:00:38.012Z,19.58
2023-04-18T07:03:42.409Z,19.54
2023-04-18T07:06:45.512Z,18.10
2023-04-18T07:09:48.517Z,16.25
2023-04-18T07:12:51.887Z,15.91
2023-04-18T07:15:54.913Z,16.33
2023-04-18T07:18:58.931Z,15.87
2023-04-18T07:22:02.918Z,17.26
2023-04-18T07:25:06.652Z,16.94
2023-04-18T07:28:15.459Z,16.89
2023-04-18T07:31:20.551Z,16.43
2023-04-18T07:34:32.726Z,16.57
2023-04-18T07:37:36.223Z,15.99
2023-04-18T07:40:39.972Z,15.72
2023-04-18T07:43:45.280Z,15.63
2023-04-18T07:46:49.785Z,15.66
2023-04-18T07:49:52.801Z,15.72
2023-04-18T07:52:55.790Z,15.58
2023-04-18T07:56:01.070Z,15.04
2023-04-18T07:59:06.825Z,15.34
2023-04-18T08:02:11.292Z,15.69
2023-04-18T08:05:14.363Z,15.88
2023-04-18T08:08:18.248Z,16.03
2023-04-18T08:11:21.519Z,16.17
2023-04-18T08:14:24.324Z,16.58
2023-04-18T08:17:30.738Z,16.36
2023-04-18T08:20:35.830Z,16.10
2023-04-18T08:23:39.231Z,16.60
2023-04-18T08:26:42.861Z,16.04
2023-04-18T08:29:46.336Z,16.39
2023-04-18T08:32:50.815Z,16.51
2023-04-18T08:35:53.989Z,16.69
2023-04-18T08:38:58.549Z,16.65
2023-04-18T08:42:01.960Z,16.56
2023-04-18T08:45:10.781Z,16.77
2023-04-18T08:48:17.182Z,16.92
2023-04-18T08:51:23.147Z,17.04
2023-04-18T08:54:27.871Z,17.27
2023-04-18T08:57:31.778Z,17.28
2023-04-18T09:00:36.637Z,17.51
2023-04-18T09:03:44.571Z,17.16
2023-04-18T09:06:56.125Z,17.26
2023-04-18T09:09:59.214Z,17.46
2023-04-18T09:13:06.970Z,17.37
2023-04-18T09:16:11.577Z,18.18
2023-04-18T09:19:19.548Z,18.06
2023-04-18T09:22:24.012Z,17.76
2023-04-18T09:25:36.336Z,17.07
2023-04-18T09:28:43.845Z,17.58
2023-04-18T09:32:06.349Z,17.69
2023-04-18T09:35:10.209Z,17.18
2023-04-18T09:38:13.578Z,18.39
2023-04-18T09:41:21.247Z,18.51
2023-04-18T09:44:25.367Z,18.24
2023-04-18T09:47:29.200Z,18.98
2023-04-18T10:05:57.842Z,18.45
2023-04-18T10:09:04.255Z,18.40
2023-04-18T10:12:06.823Z,18.65
2023-04-18T10:15:10.810Z,18.78
2023-04-18T10:18:17.432Z,18.56
2023-04-18T10:21:22.560Z,18.52
2023-04-18T10:24:44.284Z,18.35
2023-04-18T10:27:49.834Z,18.80
2023-04-18T10:30:53.745Z,19.09
2023-04-18T10:34:04.692Z,19.17
2023-04-18T10:37:10.070Z,19.13
2023-04-18T10:40:16.752Z,19.02
2023-04-18T10:43:20.867Z,19.49
2023-04-18T10:46:31.672Z,19.37
2023-04-18T10:49:38.977Z,19.13
2023-04-18T10:52:42.557Z,19.33
2023-04-18T10:55:50.567Z,18.62
2023-04-18T10:58:54.258Z,19.13
2023-04-18T11:02:16.445Z,19.07
2023-04-18T11:05:21.189Z,19.09
2023-04-18T11:08:39.121Z,19.17
2023-04-18T11:11:45.704Z,19.69
2023-04-18T11:14:54.975Z,20.05
2023-04-18T11:18:07.262Z,20.29
2023-04-18T11:21:18.382Z,19.57
2023-04-18T11:24:38.064Z,19.67
2023-04-18T11:28:07.687Z,19.86
2023-04-18T11:31:10.429Z,19.28
2023-04-18T11:34:14.431Z,19.02
2023-04-18T11:37:18.779Z,17.88
2023-04-18T11:40:21.502Z,17.89
2023-04-18T11:43:26.958Z,18.23
2023-04-18T11:46:39.684Z,18.72
2023-04-18T11:49:42.835Z,18.62
2023-04-18T11:52:50.681Z,19.03
2023-04-18T11:56:04.292Z,19.28
2023-04-18T11:59:10.786Z,18.64
2023-04-18T12:02:17.166Z,18.43
2023-04-18T12:05:30.047Z,18.29
2023-04-18T12:08:34.083Z,18.04
2023-04-18T12:11:36.775Z,18.00
2023-04-18T12:14:39.664Z,17.77
2023-04-18T12:17:44.931Z,18.04
2023-04-18T12:20:53.245Z,18.16
2023-04-18T12:23:56.511Z,18.32
2023-04-18T12:27:00.535Z,18.71
2023-04-18T12:30:05.389Z,18.82
2023-04-18T12:33:09.885Z,19.11
2023-04-18T12:36:13.092Z,18.95
2023-04-18T12:39:15.194Z,19.35
2023-04-18T12:42:18.198Z,19.32
2023-04-18T12:45:23.232Z,19.16
2023-04-18T12:48:43.146Z,19.06
2023-04-18T12:51:45.949Z,18.79
2023-04-18T12:54:49.420Z,18.52
2023-04-18T12:57:54.775Z,18.55
2023-04-18T13:00:59.842Z,18.77
2023-04-18T13:04:11.997Z,18.76
2023-04-18T13:07:16.104Z,18.14
2023-04-18T13:10:21.530Z,18.25
2023-04-18T13:13:33.477Z,18.28
2023-04-18T13:16:41.115Z,18.23
2023-04-18T13:19:46.562Z,18.15
2023-04-18T13:22:50.085Z,18.08
2023-04-18T13:25:53.574Z,18.52
2023-04-18T13:28:56.999Z,18.98
2023-04-18T13:31:59.660Z,18.90
2023-04-18T13:35:03.894Z,19.14
2023-04-18T13:38:07.380Z,19.22
2023-04-18T13:41:13.368Z,19.06
2023-04-18T13:44:20.342Z,19.26
2023-04-18T13:47:23.306Z,19.34
2023-04-18T13:50:27.510Z,19.61
2023-04-18T13:53:31.482Z,19.50
2023-04-18T13:56:35.168Z,18.87
2023-04-18T13:59:39.421Z,18.52
2023-04-18T14:02:43.113Z,18.21
2023-04-18T14:05:46.370Z,18.27
2023-04-18T14:08:51.129Z,18.41
2023-04-18T14:11:53.375Z,18.25
2023-04-18T14:14:56.126Z,18.12
2023-04-18T14:18:00.236Z,18.16
2023-04-18T14:21:03.267Z,18.40
2023-04-18T14:24:06.870Z,18.59
2023-04-18T14:27:10.564Z,18.64
2023-04-18T14:30:13.998Z,18.60
2023-04-18T14:33:18.003Z,18.59
2023-04-18T14:36:21.810Z,18.47
2023-04-18T14:39:28.304Z,18.59
2023-04-18T14:42:31.366Z,18.71
2023-04-18T14:45:35.774Z,18.64
2023-04-18T14:48:40.149Z,18.59
2023-04-18T14:51:45.032Z,18.60
2023-04-18T14:54:48.685Z,18.62
2023-04-18T14:57:52.636Z,18.36
2023-04-18T15:00:56.309Z,18.00
2023-04-18T15:04:04.775Z,17.79
2023-04-18T15:07:08.019Z,17.73
2023-04-18T15:10:16.846Z,17.89
2023-04-18T15:13:19.974Z,17.98
2023-04-18T15:16:22.807Z,18.11
2023-04-18T15:19:26.026Z,18.11
2023-04-18T15:22:29.526Z,17.85
2023-04-18T15:25:33.137Z,17.75
2023-04-18T15:28:36.540Z,17.64
2023-04-18T15:31:39.783Z,17.74
2023-04-18T15:34:43.149Z,17.75
2023-04-18T15:37:46.105Z,17.82
2023-04-18T15:40:49.497Z,17.91
2023-04-18T15:43:53.539Z,17.77
2023-04-18T15:46:58.029Z,17.78
2023-04-18T15:50:00.640Z,17.80
2023-04-18T15:53:04.139Z,17.72
2023-04-18T15:56:11.980Z,17.38
2023-04-18T15:59:15.781Z,17.10
2023-04-18T16:02:20.573Z,17.06
2023-04-18T16:05:24.718Z,16.95
2023-04-18T16:08:28.225Z,16.98
2023-04-18T16:11:32.604Z,17.06
2023-04-18T16:14:35.938Z,17.06
2023-04-18T16:17:39.291Z,16.96
2023-04-18T16:20:42.429Z,16.80
2023-04-18T16:23:45.961Z,16.77
2023-04-18T16:26:49.201Z,16.63
2023-04-18T16:29:54.821Z,16.44
2023-04-18T16:32:58.406Z,16.36
2023-04-18T16:36:03.363Z,16.32
2023-04-18T16:39:06.096Z,16.19
2023-04-18T16:42:13.374Z,16.17
2023-04-18T16:45:18.038Z,16.17
2023-04-18T16:48:21.267Z,16.14
2023-04-18T16:51:25.667Z,16.10
2023-04-18T16:54:28.568Z,15.97
2023-04-18T16:57:32.048Z,15.99
2023-04-18T17:00:37.734Z,15.95
2023-04-18T17:03:41.321Z,15.89
2023-04-18T17:06:44.101Z,15.95
2023-04-18T17:09:47.729Z,15.81
2023-04-18T17:12:51.309Z,15.64
2023-04-18T17:15:55.868Z,15.57
2023-04-18T17:18:58.524Z,15.56
2023-04-18T17:22:01.368Z,15.51
2023-04-18T17:25:05.218Z,15.64
2023-04-18T17:28:08.620Z,15.62
2023-04-18T17:31:14.390Z,15.48
2023-04-18T17:34:19.222Z,15.27
2023-04-18T17:37:23.237Z,15.15
2023-04-18T17:40:26.657Z,15.03
2023-04-18T17:43:30.377Z,14.89
2023-04-18T17:46:33.418Z,14.78
2023-04-18T17:49:36.841Z,14.62
2023-04-18T17:52:40.341Z,14.47
2023-04-18T17:55:43.630Z,14.33
2023-04-18T17:58:46.355Z,14.18
2023-04-18T18:01:49.675Z,14.11
2023-04-18T18:04:53.026Z,13.92
2023-04-18T18:07:58.148Z,13.75
2023-04-18T18:11:03.457Z,13.63
2023-04-18T18:14:06.292Z,13.51
2023-04-18T18:17:09.599Z,13.41
2023-04-18T18:20:12.559Z,13.31
2023-04-18T18:23:15.578Z,13.21
2023-04-18T18:26:17.605Z,13.10
2023-04-18T18:29:20.066Z,12.95
2023-04-18T18:32:22.139Z,12.85
2023-04-18T18:35:24.667Z,12.81
2023-04-18T18:38:26.868Z,12.81
2023-04-18T18:41:29.064Z,12.74
2023-04-18T18:44:31.872Z,12.72
2023-04-18T18:47:34.892Z,12.79
2023-04-18T18:50:37.932Z,12.83
2023-04-18T18:53:40.590Z,12.84
2023-04-18T18:56:44.983Z,12.88
2023-04-18T18:59:50.881Z,12.94
2023-04-18T19:02:54.746Z,13.00
2023-04-18T19:05:57.687Z,13.03
2023-04-18T19:09:01.046Z,13.07
2023-04-18T19:12:05.372Z,13.10
2023-04-18T19:15:08.612Z,13.12
2023-04-18T19:18:13.198Z,13.15
2023-04-18T19:21:17.116Z,13.22
2023-04-18T19:24:19.285Z,13.51
2023-04-18T19:27:22.009Z,13.88
2023-04-18T19:30:26.249Z,14.12
2023-04-18T19:33:30.097Z,14.23
2023-04-18T19:36:34.067Z,14.26
2023-04-18T19:39:37.323Z,14.29
2023-04-18T19:42:41.078Z,14.22
2023-04-18T19:45:44.051Z,14.31
2023-04-18T19:48:47.565Z,14.31
2023-04-18T19:51:53.574Z,14.32
2023-04-18T19:54:56.851Z,14.29
2023-04-18T19:58:00.708Z,14.21
2023-04-18T20:01:07.066Z,14.08
2023-04-18T20:04:10.218Z,14.01
2023-04-18T20:07:14.063Z,14.05
2023-04-18T20:10:16.924Z,13.98
2023-04-18T20:13:19.844Z,13.99
2023-04-18T20:16:22.734Z,14.04
2023-04-18T20:19:26.462Z,14.04
2023-04-18T20:22:30.356Z,14.01
2023-04-18T20:25:34.577Z,13.99
2023-04-18T20:28:38.924Z,14.04
2023-04-18T20:31:42.921Z,14.05
2023-04-18T20:34:48.250Z,14.05
2023-04-18T20:37:50.845Z,13.99
2023-04-18T20:40:53.950Z,13.96
2023-04-18T20:44:00.729Z,13.95
2023-04-18T20:47:04.207Z,13.92
2023-04-18T20:50:06.940Z,13.93
2023-04-18T20:53:10.191Z,13.87
2023-04-18T20:56:13.085Z,13.85
2023-04-18T20:59:16.245Z,13.82
2023-04-18T21:02:18.956Z,13.80
2023-04-18T21:05:21.757Z,13.70
2023-04-18T21:08:25.472Z,13.59
2023-04-18T21:11:29.502Z,13.51
2023-04-18T21:14:32.663Z,13.46
2023-04-18T21:17:35.369Z,13.32
2023-04-18T21:20:38.859Z,13.23
2023-04-18T21:23:43.570Z,13.18
2023-04-18T21:26:46.152Z,13.19
2023-04-18T21:29:49.862Z,13.12
2023-04-18T21:32:52.466Z,13.13
2023-04-18T21:35:55.312Z,13.11
2023-04-18T21:38:59.377Z,13.13
2023-04-18T21:42:02.560Z,13.07
2023-04-18T21:45:05.748Z,13.07
2023-04-18T21:48:09.790Z,13.00
2023-04-18T21:51:14.088Z,12.98
2023-04-18T21:54:17.593Z,12.95
2023-04-18T21:57:20.093Z,12.96
2023-04-18T22:00:22.539Z,12.89
2023-04-18T22:03:28.510Z,12.88
2023-04-18T22:06:32.937Z,12.86
2023-04-18T22:09:37.305Z,12.87
2023-04-18T22:12:40.497Z,12.82
2023-04-18T22:15:43.696Z,12.81
2023-04-18T22:18:46.087Z,12.81
2023-04-18T22:21:49.228Z,12.82
2023-04-18T22:24:52.300Z,12.80
2023-04-18T22:27:55.514Z,12.83
2023-04-18T22:30:58.497Z,12.74
2023-04-18T22:34:00.880Z,12.69
2023-04-18T22:37:03.881Z,12.67
2023-04-18T22:40:06.375Z,12.73
2023-04-18T22:43:09.545Z,12.73
2023-04-18T22:46:12.920Z,12.72
2023-04-18T22:49:16.407Z,12.71
2023-04-18T22:52:19.711Z,12.75
2023-04-18T22:55:22.621Z,12.74
2023-04-18T22:58:25.794Z,12.76
2023-04-18T23:01:29.260Z,12.77
2023-04-18T23:04:33.684Z,12.75
2023-04-18T23:07:36.987Z,12.68
2023-04-18T23:10:40.873Z,12.66
2023-04-18T23:13:43.790Z,12.68
2023-04-18T23:16:46.552Z,12.65
2023-04-18T23:19:49.193Z,12.69
2023-04-18T23:22:53.665Z,12.72
2023-04-18T23:25:57.365Z,12.73
2023-04-18T23:29:00.490Z,12.77
2023-04-18T23:32:05.717Z,12.80
2023-04-18T23:35:09.515Z,12.81
2023-04-18T23:38:11.615Z,12.84
2023-04-18T23:41:14.538Z,12.83
2023-04-18T23:44:17.787Z,12.80
2023-04-18T23:47:21.528Z,12.82
2023-04-18T23:50:24.489Z,12.80
2023-04-18T23:53:27.928Z,12.81
2023-04-18T23:56:30.380Z,12.87
2023-04-18T23:59:33.526Z,12.87
